Time;durP1;ratioP1;P1;durP2;ratioP2;P2;SDS_P1;SDS_P2;PMS_P1;PMS_P2;Temp;Humidity;BMP_temperature;BMP_pressure;BME280_temperature;BME280_humidity;BME280_pressure;Samples;Min_cycle;Max_cycle;Signal;HPM_P1;HPM_P2
2022/04/25 00:01:58;;;;;;;;;20.00;15.25;;;;;16.12;48.13;100544.03;4971335;28;46421;-58
2022/04/25 00:04:23;;;;;;;;;19.75;16.50;;;;;16.09;47.62;100551.41;4980905;28;45410;-58
2022/04/25 00:06:49;;;;;;;;;19.25;14.00;;;;;16.08;48.08;100541.75;4981174;28;45376;-58
2022/04/25 00:09:15;;;;;;;;;15.75;15.00;;;;;16.07;47.87;100548.91;4981082;28;45360;-55
2022/04/25 00:11:40;;;;;;;;;19.75;15.25;;;;;16.07;48.08;100545.41;4963886;28;47693;-58
2022/04/25 00:14:07;;;;;;;;;19.75;14.00;;;;;16.07;48.18;100542.75;4969802;28;45706;-58
2022/04/25 00:16:33;;;;;;;;;18.00;14.25;;;;;16.08;48.08;100539.94;4979057;28;45238;-58
2022/04/25 00:19:00;;;;;;;;;18.50;15.00;;;;;16.07;48.04;100543.56;4984725;28;45334;-58
2022/04/25 00:21:26;;;;;;;;;16.25;12.00;;;;;16.05;47.78;100547.34;4981439;28;46168;-59
2022/04/25 00:23:52;;;;;;;;;13.75;11.75;;;;;16.02;48.15;100543.13;4975155;28;45353;-58
2022/04/25 00:26:18;;;;;;;;;20.25;15.50;;;;;16.01;47.94;100549.41;4984405;28;45337;-58
2022/04/25 00:28:43;;;;;;;;;18.25;14.25;;;;;16.04;47.85;100543.00;4987002;28;45412;-58
2022/04/25 00:31:09;;;;;;;;;15.00;15.00;;;;;16.01;48.14;100545.91;4987604;28;45425;-57
2022/04/25 00:33:35;;;;;;;;;16.25;14.00;;;;;15.99;48.08;100548.69;4989551;28;45463;-58
2022/04/25 00:36:01;;;;;;;;;16.75;14.25;;;;;15.98;48.32;100544.38;4991957;28;45527;-56
2022/04/25 00:38:26;;;;;;;;;14.50;13.50;;;;;15.96;47.93;100542.78;4989741;28;45677;-56
2022/04/25 00:40:52;;;;;;;;;13.50;13.25;;;;;15.93;48.19;100546.56;4986400;28;45960;-56
2022/04/25 00:43:17;;;;;;;;;19.00;15.75;;;;;15.86;48.57;100546.22;4987968;28;45366;-55
2022/04/25 00:45:43;;;;;;;;;17.75;17.50;;;;;15.84;48.08;100542.88;4991007;28;45388;-56
2022/04/25 00:48:08;;;;;;;;;13.00;11.50;;;;;15.80;48.21;100543.25;4990810;28;45420;-57
2022/04/25 00:50:39;;;;;;;;;17.75;15.50;;;;;15.75;48.29;100535.69;4988895;28;46042;-58
2022/04/25 00:53:06;;;;;;;;;18.00;14.00;;;;;15.75;48.32;100542.81;4985878;28;45488;-58
2022/04/25 00:55:31;;;;;;;;;15.00;13.25;;;;;15.68;48.55;100546.94;4983728;28;45399;-58
2022/04/25 00:57:58;;;;;;;;;18.00;12.75;;;;;15.61;48.62;100550.09;4990625;28;45861;-56
2022/04/25 01:00:24;;;;;;;;;18.25;13.25;;;;;15.57;48.85;100553.97;4992681;28;45747;-58
2022/04/25 01:02:50;;;;;;;;;14.00;13.50;;;;;15.55;48.93;100553.22;4991318;28;45637;-58
2022/04/25 01:05:16;;;;;;;;;14.00;12.75;;;;;15.57;48.74;100561.09;4988351;28;45511;-59
2022/04/25 01:07:42;;;;;;;;;16.75;14.00;;;;;15.52;48.80;100550.00;4978993;28;45879;-59
2022/04/25 01:10:10;;;;;;;;;13.50;11.75;;;;;15.49;49.18;100553.75;4985122;28;46151;-58
2022/04/25 01:12:36;;;;;;;;;17.50;15.75;;;;;15.49;48.80;100551.13;4986034;28;45431;-58
2022/04/25 01:15:07;;;;;;;;;13.75;12.00;;;;;15.49;49.38;100553.75;4984621;28;45398;-58
2022/04/25 01:17:34;;;;;;;;;13.25;11.75;;;;;15.47;49.33;100549.53;4984737;28;45535;-60
2022/04/25 01:19:59;;;;;;;;;18.00;16.75;;;;;15.44;49.22;100544.50;4986619;28;45527;-60
2022/04/25 01:22:32;;;;;;;;;16.00;13.75;;;;;15.39;49.53;100550.16;4989815;28;45442;-60
2022/04/25 01:27:42;;;;;;;;;14.00;14.00;;;;;15.30;49.70;100541.16;4984139;28;45524;-60
2022/04/25 01:30:09;;;;;;;;;15.75;11.75;;;;;15.26;49.76;100544.19;4982195;28;46164;-60
2022/04/25 01:32:37;;;;;;;;;16.00;16.00;;;;;15.21;50.08;100539.25;4962087;28;45907;-60
2022/04/25 01:35:03;;;;;;;;;19.25;16.00;;;;;15.17;50.04;100548.44;4962283;28;45393;-59
2022/04/25 01:37:30;;;;;;;;;14.50;13.25;;;;;15.16;50.01;100546.72;4963560;28;45386;-59
2022/04/25 01:39:55;;;;;;;;;14.75;12.50;;;;;15.18;50.00;100551.94;4963462;28;45524;-59
2022/04/25 01:42:22;;;;;;;;;13.50;12.75;;;;;15.20;50.13;100553.50;4963319;28;45408;-59
2022/04/25 01:44:48;;;;;;;;;16.25;12.75;;;;;15.20;50.18;100555.31;4963696;28;45377;-60
2022/04/25 01:47:14;;;;;;;;;18.25;15.75;;;;;15.17;49.79;100555.56;4963364;28;45504;-60
2022/04/25 01:49:40;;;;;;;;;15.50;14.00;;;;;15.15;50.25;100546.88;4961718;28;45339;-60
2022/04/25 01:52:20;;;;;;;;;17.00;14.00;;;;;15.13;50.11;100554.97;4962549;28;45434;-60
2022/04/25 01:54:47;;;;;;;;;17.50;14.25;;;;;15.11;50.35;100559.56;4963188;28;45456;-61
2022/04/25 01:57:13;;;;;;;;;17.00;16.75;;;;;15.05;50.62;100560.03;4963233;28;45464;-61
2022/04/25 01:59:39;;;;;;;;;18.75;15.50;;;;;14.96;50.76;100566.09;4963174;28;45899;-61
2022/04/25 02:02:05;;;;;;;;;19.50;17.00;;;;;14.87;50.83;100558.88;4962904;28;45418;-61
2022/04/25 02:04:31;;;;;;;;;14.75;14.00;;;;;14.81;50.92;100570.81;4963233;28;45401;-60
2022/04/25 02:06:57;;;;;;;;;17.75;15.00;;;;;14.82;51.63;100569.00;4963169;28;45566;-61
2022/04/25 02:09:23;;;;;;;;;19.50;16.50;;;;;14.81;51.44;100573.47;4963068;28;45379;-61
2022/04/25 02:11:49;;;;;;;;;20.25;18.25;;;;;14.82;51.46;100576.94;4967444;28;45407;-60
2022/04/25 02:14:15;;;;;;;;;14.75;12.50;;;;;14.79;51.50;100575.41;4990077;28;45590;-61
2022/04/25 02:16:41;;;;;;;;;19.00;15.75;;;;;14.78;51.74;100582.50;4981912;28;45555;-61
2022/04/25 02:19:07;;;;;;;;;13.75;13.75;;;;;14.76;51.65;100575.63;4981656;28;46008;-60
2022/04/25 02:21:33;;;;;;;;;16.00;15.50;;;;;14.76;51.63;100578.28;4980298;28;45445;-61
2022/04/25 02:23:59;;;;;;;;;17.00;14.50;;;;;14.76;51.91;100586.22;4981841;28;45423;-61
2022/04/25 02:26:25;;;;;;;;;18.50;16.25;;;;;14.79;52.04;100581.53;4981993;28;45492;-59
2022/04/25 02:28:54;;;;;;;;;14.75;10.75;;;;;14.77;51.88;100586.13;4981635;28;46387;-59
2022/04/25 02:31:20;;;;;;;;;16.25;15.50;;;;;14.75;52.03;100577.44;4981898;28;45568;-59
2022/04/25 02:33:46;;;;;;;;;19.25;15.00;;;;;14.76;52.03;100575.63;4981881;28;45377;-60
2022/04/25 02:36:13;;;;;;;;;16.75;14.75;;;;;14.74;52.41;100574.91;4982112;28;45432;-60
2022/04/25 02:38:39;;;;;;;;;19.00;17.00;;;;;14.69;52.12;100577.06;4981989;28;45566;-60
2022/04/25 02:41:05;;;;;;;;;19.50;14.50;;;;;14.64;52.59;100576.59;4981713;28;45373;-60
2022/04/25 02:43:36;;;;;;;;;16.25;13.75;;;;;14.57;52.52;100580.69;4982306;28;45266;-59
2022/04/25 02:46:03;;;;;;;;;19.75;15.75;;;;;14.54;52.62;100586.25;4980850;28;45581;-59
2022/04/25 02:48:34;;;;;;;;;14.00;13.25;;;;;14.43;52.72;100581.75;4980127;28;45627;-59
2022/04/25 02:51:01;;;;;;;;;17.75;16.00;;;;;14.38;53.39;100587.41;4980572;28;45678;-60
2022/04/25 02:53:27;;;;;;;;;20.00;14.25;;;;;14.37;53.24;100583.06;4980483;28;45698;-59
2022/04/25 02:55:53;;;;;;;;;19.00;17.75;;;;;14.39;53.54;100586.44;4980589;28;45567;-59
2022/04/25 02:58:22;;;;;;;;;19.50;15.50;;;;;14.39;53.39;100589.09;4980107;28;45601;-60
2022/04/25 03:00:48;;;;;;;;;21.50;14.75;;;;;14.31;53.41;100588.84;4980324;28;45382;-59
2022/04/25 03:03:15;;;;;;;;;22.00;16.75;;;;;14.30;54.08;100591.59;4979998;28;45478;-59
2022/04/25 03:05:43;;;;;;;;;18.75;15.75;;;;;14.29;54.00;100588.09;4980134;28;45488;-59
2022/04/25 03:08:10;;;;;;;;;20.75;15.25;;;;;14.31;53.97;100590.66;4979855;28;46077;-59
2022/04/25 03:10:36;;;;;;;;;20.75;15.00;;;;;14.35;54.23;100586.78;4979978;28;45480;-59
2022/04/25 03:13:04;;;;;;;;;18.00;14.75;;;;;14.35;54.19;100595.59;4991364;28;45413;-60
2022/04/25 03:15:30;;;;;;;;;19.00;15.25;;;;;14.32;54.22;100587.88;4981497;28;45537;-60
2022/04/25 03:17:56;;;;;;;;;18.00;17.00;;;;;14.32;54.28;100595.00;4981080;28;46105;-60
2022/04/25 03:20:23;;;;;;;;;19.50;16.50;;;;;14.27;54.32;100597.97;4981333;28;45439;-60
2022/04/25 03:22:49;;;;;;;;;20.00;19.00;;;;;14.23;54.49;100593.91;4981415;28;45427;-60
2022/04/25 03:25:15;;;;;;;;;20.75;15.00;;;;;14.17;54.79;100586.41;4981194;28;45548;-60
2022/04/25 03:27:41;;;;;;;;;24.50;18.25;;;;;14.09;55.15;100589.66;4981184;28;45391;-60
2022/04/25 03:30:07;;;;;;;;;20.00;17.75;;;;;14.10;54.94;100596.63;4980600;28;45470;-60
2022/04/25 03:32:32;;;;;;;;;18.75;17.75;;;;;14.11;55.05;100597.47;4980936;28;45635;-61
2022/04/25 03:34:58;;;;;;;;;23.00;18.50;;;;;14.03;55.14;100594.56;4980934;28;45462;-60
2022/04/25 03:37:24;;;;;;;;;22.00;19.75;;;;;13.94;55.48;100604.06;4981129;28;45418;-60
2022/04/25 03:39:49;;;;;;;;;26.75;18.00;;;;;13.89;55.76;100603.53;4980919;28;45381;-60
2022/04/25 03:42:15;;;;;;;;;23.50;19.25;;;;;13.84;55.90;100605.72;4980932;28;45511;-60
2022/04/25 03:44:41;;;;;;;;;18.00;17.00;;;;;13.79;56.20;100599.91;4981131;28;46488;-60
2022/04/25 03:47:06;;;;;;;;;21.50;18.00;;;;;13.79;55.95;100602.56;4980779;28;46258;-60
2022/04/25 03:49:32;;;;;;;;;21.00;18.75;;;;;13.81;56.12;100604.13;4981014;28;45450;-60
2022/04/25 03:51:57;;;;;;;;;27.75;21.25;;;;;13.83;56.27;100607.50;4980339;28;45413;-60
2022/04/25 03:57:10;;;;;;;;;22.00;17.00;;;;;13.85;56.16;100612.69;4980614;28;45624;-60
2022/04/25 03:59:35;;;;;;;;;22.25;19.00;;;;;13.85;56.46;100612.69;4980846;28;45408;-60
2022/04/25 04:02:01;;;;;;;;;21.50;18.25;;;;;13.88;56.29;100608.00;4980775;28;45250;-60
2022/04/25 04:04:26;;;;;;;;;25.00;18.50;;;;;13.89;56.59;100616.78;4980933;28;45436;-60
2022/04/25 04:06:52;;;;;;;;;23.50;18.75;;;;;13.88;56.23;100623.88;4980424;28;45468;-60
2022/04/25 04:12:02;;;;;;;;;20.75;15.50;;;;;13.77;56.70;100618.56;4985074;28;45375;-59
2022/04/25 04:14:27;;;;;;;;;23.75;19.75;;;;;13.72;56.68;100622.50;4986834;28;45323;-60
2022/04/25 04:16:53;;;;;;;;;20.50;20.25;;;;;13.67;56.80;100620.22;4980420;28;45399;-60
2022/04/25 04:19:18;;;;;;;;;26.50;22.50;;;;;13.66;56.96;100632.56;4978766;28;45351;-59
2022/04/25 04:21:43;;;;;;;;;26.00;19.25;;;;;13.63;56.91;100616.91;4979028;28;45319;-60
2022/04/25 04:24:09;;;;;;;;;23.75;18.00;;;;;13.61;57.24;100633.88;4979291;28;45248;-60
2022/04/25 04:26:35;;;;;;;;;27.50;22.75;;;;;13.63;57.10;100637.25;4980141;28;46011;-60
2022/04/25 04:29:01;;;;;;;;;24.25;19.00;;;;;13.63;57.36;100642.56;4980596;28;45451;-60
2022/04/25 04:31:26;;;;;;;;;21.50;16.00;;;;;13.62;57.24;100638.22;4980774;28;45606;-60
2022/04/25 04:33:52;;;;;;;;;26.25;22.00;;;;;13.62;57.54;100647.00;4980467;28;45453;-60
2022/04/25 04:36:17;;;;;;;;;25.00;21.75;;;;;13.61;57.59;100641.81;4980204;28;45293;-61
2022/04/25 04:38:43;;;;;;;;;25.50;21.75;;;;;13.55;57.69;100650.22;4980671;28;45393;-60
2022/04/25 04:41:09;;;;;;;;;32.00;22.75;;;;;13.54;57.82;100646.72;4980516;28;45604;-60
2022/04/25 04:43:34;;;;;;;;;22.25;21.00;;;;;13.54;57.76;100652.00;4980400;28;45373;-62
2022/04/25 04:46:00;;;;;;;;;22.25;20.75;;;;;13.52;57.61;100653.94;4979998;28;45626;-61
2022/04/25 04:48:26;;;;;;;;;25.75;24.25;;;;;13.49;57.67;100654.13;4980291;28;45299;-60
2022/04/25 04:50:55;;;;;;;;;38.25;27.50;;;;;13.48;57.92;100655.09;4980385;28;45365;-60
2022/04/25 04:53:21;;;;;;;;;28.00;24.25;;;;;13.48;58.16;100656.91;4980452;28;45408;-60
2022/04/25 04:55:47;;;;;;;;;35.25;28.75;;;;;13.44;58.25;100668.69;4979384;28;45428;-60
2022/04/25 04:58:13;;;;;;;;;28.75;27.75;;;;;13.43;58.18;100677.53;4980300;28;45411;-61
2022/04/25 05:00:40;;;;;;;;;40.50;30.25;;;;;13.39;58.19;100685.72;4980327;28;45369;-61
2022/04/25 05:03:05;;;;;;;;;30.75;26.00;;;;;13.39;58.66;100687.53;4980400;28;45629;-60
2022/04/25 05:05:32;;;;;;;;;31.50;26.50;;;;;13.37;58.41;100689.44;4982895;28;45305;-59
2022/04/25 05:07:57;;;;;;;;;27.75;24.25;;;;;13.38;58.35;100684.03;4983241;28;45389;-59
2022/04/25 05:10:23;;;;;;;;;29.00;27.75;;;;;13.39;58.44;100685.72;4983002;28;45394;-59
2022/04/25 05:12:56;;;;;;;;;30.75;29.50;;;;;13.37;58.29;100687.63;4994385;28;45484;-59
2022/04/25 05:15:22;;;;;;;;;32.25;29.00;;;;;13.35;58.31;100700.13;4970834;28;45441;-59
2022/04/25 05:17:49;;;;;;;;;36.25;30.00;;;;;13.31;58.65;100688.06;4983186;28;45310;-59
2022/04/25 05:20:16;;;;;;;;;27.50;27.00;;;;;13.32;58.58;100696.84;4983505;28;45325;-59
2022/04/25 05:22:44;;;;;;;;;36.75;28.50;;;;;13.33;58.77;100707.31;4983516;28;45733;-59
2022/04/25 05:25:11;;;;;;;;;40.50;33.25;;;;;13.32;58.75;100708.28;4983257;28;46018;-59
2022/04/25 05:27:38;;;;;;;;;42.50;32.25;;;;;13.31;58.81;100708.38;4982677;28;45353;-60
2022/04/25 05:30:04;;;;;;;;;27.75;27.75;;;;;13.28;58.90;100719.19;4983516;28;45246;-60
2022/04/25 05:32:49;;;;;;;;;40.00;30.50;;;;;13.26;58.82;100716.63;4991384;28;45544;-60
2022/04/25 05:35:16;;;;;;;;;35.25;31.00;;;;;13.27;58.83;100721.00;4986401;28;46166;-60
2022/04/25 05:37:42;;;;;;;;;39.25;32.75;;;;;13.20;58.86;100719.75;4987791;28;45586;-60
2022/04/25 05:40:08;;;;;;;;;38.25;32.00;;;;;13.19;58.83;100722.44;4988563;28;45670;-60
2022/04/25 05:42:35;;;;;;;;;42.50;32.25;;;;;13.18;59.15;100728.69;4983787;28;45574;-60
2022/04/25 05:45:03;;;;;;;;;37.25;35.25;;;;;13.18;58.70;100726.03;4987182;28;45507;-60
2022/04/25 05:47:29;;;;;;;;;38.50;34.00;;;;;13.17;59.03;100737.56;4990980;28;45389;-60
2022/04/25 05:52:38;;;;;;;;;38.75;32.25;;;;;13.08;58.91;100739.06;4986997;28;45573;-60
2022/04/25 05:55:04;;;;;;;;;42.25;37.25;;;;;13.04;58.75;100741.09;4987186;28;46050;-59
2022/04/25 05:57:30;;;;;;;;;40.25;34.50;;;;;13.02;59.12;100742.97;4984683;28;45580;-60
2022/04/25 05:59:55;;;;;;;;;43.75;36.25;;;;;13.01;58.91;100751.88;4989832;28;45503;-59
2022/04/25 06:02:21;;;;;;;;;43.25;35.75;;;;;13.01;58.92;100749.22;4988959;28;45807;-60
2022/04/25 06:04:46;;;;;;;;;46.25;36.00;;;;;13.01;59.12;100756.31;4988115;28;46164;-61
2022/04/25 06:07:12;;;;;;;;;46.00;36.75;;;;;13.02;59.09;100764.13;4985911;28;45356;-60
2022/04/25 06:09:37;;;;;;;;;39.75;35.75;;;;;13.05;59.05;100763.94;4986587;28;45465;-60
2022/04/25 06:12:03;;;;;;;;;49.50;39.75;;;;;13.08;58.83;100761.06;4992206;28;45439;-60
2022/04/25 06:14:31;;;;;;;;;29.00;26.00;;;;;13.04;58.84;100767.53;4988587;28;46281;-60
2022/04/25 06:17:01;;;;;;;;;48.50;37.75;;;;;13.03;58.71;100762.31;4987305;28;45368;-60
2022/04/25 06:19:27;;;;;;;;;48.00;36.50;;;;;13.00;58.94;100773.13;4987583;28;45594;-61
2022/04/25 06:21:52;;;;;;;;;49.25;36.75;;;;;12.94;58.80;100774.38;4988034;28;45781;-60
2022/04/25 06:24:18;;;;;;;;;49.50;38.00;;;;;12.89;59.10;100775.69;4985013;28;46099;-60
2022/04/25 06:26:44;;;;;;;;;54.00;41.00;;;;;12.92;59.32;100778.09;4982602;28;45520;-61
2022/04/25 06:29:09;;;;;;;;;51.25;42.00;;;;;12.97;58.91;100781.28;4974372;28;45408;-64
2022/04/25 06:31:35;;;;;;;;;55.00;42.50;;;;;12.98;58.83;100775.88;4982330;28;45480;-65
2022/04/25 06:34:01;;;;;;;;;48.50;39.00;;;;;13.01;58.80;100783.59;4981757;28;46084;-65
2022/04/25 06:36:26;;;;;;;;;53.00;41.25;;;;;13.01;58.84;100783.59;4979814;28;45413;-65
2022/04/25 06:38:52;;;;;;;;;47.50;39.50;;;;;12.99;58.43;100785.50;4981782;28;45491;-62
2022/04/25 06:41:18;;;;;;;;;55.50;42.50;;;;;12.88;58.77;100784.56;4982775;28;45167;-63
2022/04/25 06:43:44;;;;;;;;;51.50;41.50;;;;;12.82;58.80;100785.81;4981795;28;45237;-63
2022/04/25 06:46:09;;;;;;;;;50.00;37.50;;;;;12.83;59.06;100790.16;4981242;28;45474;-63
2022/04/25 06:48:35;;;;;;;;;50.75;41.50;;;;;12.85;59.26;100791.72;4979856;28;45346;-62
2022/04/25 06:51:01;;;;;;;;;47.00;38.25;;;;;12.89;59.04;100784.44;4982554;28;45500;-61
2022/04/25 06:53:27;;;;;;;;;49.25;40.75;;;;;12.99;59.06;100795.25;4981938;28;45624;-60
2022/04/25 06:55:53;;;;;;;;;52.25;39.25;;;;;13.03;58.83;100794.94;4981524;28;45494;-60
2022/04/25 06:58:18;;;;;;;;;51.75;38.50;;;;;13.04;58.58;100796.63;4981909;28;45427;-60
2022/04/25 07:00:47;;;;;;;;;50.75;41.25;;;;;13.04;58.67;100791.34;4981874;28;45508;-61
2022/04/25 07:03:12;;;;;;;;;50.25;40.00;;;;;13.03;58.39;100794.94;4963666;28;45296;-61
2022/04/25 07:05:38;;;;;;;;;51.50;40.50;;;;;13.02;58.66;100798.50;4982129;28;45222;-60
2022/04/25 07:08:04;;;;;;;;;55.50;41.50;;;;;13.00;58.49;100805.69;4981672;28;45317;-61
2022/04/25 07:10:29;;;;;;;;;54.00;43.00;;;;;12.90;58.75;100802.00;4981791;28;45235;-60
2022/04/25 07:12:56;;;;;;;;;50.25;42.00;;;;;12.90;58.88;100807.28;4992015;28;45687;-61
2022/04/25 07:15:23;;;;;;;;;49.25;38.75;;;;;12.86;58.77;100803.16;4981924;28;45416;-61
2022/04/25 07:17:55;;;;;;;;;47.75;36.25;;;;;12.80;58.60;100809.72;4981681;28;45375;-61
2022/04/25 07:20:20;;;;;;;;;51.25;40.75;;;;;12.83;59.02;100798.91;4981735;28;45460;-60
2022/04/25 07:28:59;;;;;;;;;51.00;40.25;;;;;12.98;58.49;100806.78;4980820;28;45373;-60
2022/04/25 07:30:59;;;;;;;;;53.75;42.75;;;;;12.98;58.60;100812.91;4968106;28;45314;-61
2022/04/25 07:33:26;;;;;;;;;52.50;40.25;;;;;13.00;58.74;100816.28;4981302;28;46088;-61
2022/04/25 07:35:53;;;;;;;;;51.25;41.50;;;;;13.05;58.52;100815.97;4981521;28;45392;-61
2022/04/25 07:38:19;;;;;;;;;48.50;36.50;;;;;13.10;58.66;100816.50;4981498;28;45372;-60
2022/04/25 07:40:45;;;;;;;;;50.75;42.00;;;;;13.20;58.42;100816.75;4981585;28;45326;-61
2022/04/25 07:43:11;;;;;;;;;53.25;42.50;;;;;13.33;58.51;100817.59;4981413;28;45506;-61
2022/04/25 07:45:36;;;;;;;;;54.50;42.75;;;;;13.46;57.88;100810.50;4981390;28;45175;-61
2022/04/25 07:48:02;;;;;;;;;55.50;39.00;;;;;13.43;57.62;100812.50;4981194;28;45175;-60
2022/04/25 07:50:27;;;;;;;;;51.25;40.25;;;;;13.39;57.57;100809.22;4981452;28;45258;-60
2022/04/25 07:52:53;;;;;;;;;51.00;42.00;;;;;13.40;57.62;100816.22;4981333;28;45254;-60
2022/04/25 07:55:18;;;;;;;;;51.00;39.75;;;;;13.51;57.70;100815.44;4981016;28;45308;-60
2022/04/25 07:57:45;;;;;;;;;47.00;36.50;;;;;13.64;57.26;100819.78;4981274;28;45350;-61
2022/04/25 08:00:11;;;;;;;;;50.25;42.50;;;;;13.67;57.17;100827.53;4981529;28;45267;-61
2022/04/25 08:02:37;;;;;;;;;51.25;40.75;;;;;13.64;57.29;100824.22;4981149;28;46298;-61
2022/04/25 08:05:03;;;;;;;;;48.50;40.00;;;;;13.56;57.08;100823.91;4981003;28;45367;-61
2022/04/25 08:07:29;;;;;;;;;53.50;40.25;;;;;13.51;57.25;100831.31;4981369;28;45338;-60
2022/04/25 08:09:55;;;;;;;;;46.25;37.50;;;;;13.53;57.30;100837.38;4980534;28;45433;-61
2022/04/25 08:18:01;;;;;;;;;47.50;38.75;;;;;13.71;57.22;100845.81;4981054;28;45344;-60
2022/04/25 08:20:28;;;;;;;;;47.50;39.75;;;;;13.74;57.00;100837.66;4981266;28;45226;-60
2022/04/25 08:22:55;;;;;;;;;56.00;43.25;;;;;13.82;56.87;100848.53;4980703;28;45373;-60
2022/04/25 08:25:20;;;;;;;;;50.75;41.00;;;;;13.88;56.60;100854.25;4981195;28;45715;-61
2022/04/25 08:27:46;;;;;;;;;49.00;39.25;;;;;13.97;56.46;100861.53;4981056;28;45561;-61
2022/04/25 08:30:12;;;;;;;;;49.75;40.25;;;;;13.95;56.46;100857.31;4980879;28;45499;-60
2022/04/25 08:32:38;;;;;;;;;52.00;41.00;;;;;13.93;56.07;100870.69;4980440;28;45416;-61
2022/04/25 08:35:04;;;;;;;;;48.00;40.75;;;;;13.87;55.91;100863.16;4980705;28;45444;-61
2022/04/25 08:37:30;;;;;;;;;51.00;42.00;;;;;13.77;56.16;100867.41;4981171;28;45501;-61
2022/04/25 08:39:55;;;;;;;;;45.75;35.00;;;;;13.77;56.17;100874.53;4983702;28;45586;-61
2022/04/25 08:42:21;;;;;;;;;39.75;35.75;;;;;13.80;56.25;100882.25;4965189;28;45556;-60
2022/04/25 08:44:54;;;;;;;;;41.75;37.50;;;;;13.82;56.19;100875.88;4983281;28;45245;-61
2022/04/25 08:47:23;;;;;;;;;48.25;37.75;;;;;13.87;55.93;100889.63;4983183;28;45444;-61
2022/04/25 08:49:49;;;;;;;;;39.75;34.75;;;;;13.91;56.17;100879.69;4982934;28;45329;-60
2022/04/25 08:52:15;;;;;;;;;43.50;38.75;;;;;13.92;55.76;100884.88;4982612;28;45361;-61
2022/04/25 08:54:42;;;;;;;;;52.00;40.00;;;;;13.85;55.86;100883.63;4982548;28;45411;-61
2022/04/25 08:57:09;;;;;;;;;49.25;40.75;;;;;13.89;55.92;100889.53;4983053;28;45349;-61
2022/04/25 08:59:35;;;;;;;;;51.00;38.50;;;;;13.91;55.93;100901.72;4982983;28;45308;-62
2022/04/25 09:02:00;;;;;;;;;53.00;38.75;;;;;13.89;55.93;100893.03;4982435;28;45404;-61
2022/04/25 09:04:26;;;;;;;;;49.50;38.50;;;;;13.88;55.81;100896.63;4982317;28;45427;-61
2022/04/25 09:06:51;;;;;;;;;43.75;38.75;;;;;13.86;55.61;100901.19;4983521;28;45314;-61
2022/04/25 09:09:20;;;;;;;;;48.75;39.75;;;;;13.91;55.73;100896.44;4983671;28;45347;-61
2022/04/25 09:14:31;;;;;;;;;48.50;39.50;;;;;14.11;56.70;100891.50;4989481;28;45310;-60
2022/04/25 09:16:57;;;;;;;;;49.75;42.00;;;;;14.27;55.81;100894.75;4983753;28;45470;-61
2022/04/25 09:19:23;;;;;;;;;52.00;40.25;;;;;14.39;56.09;100895.69;4983139;28;45496;-61
2022/04/25 09:21:48;;;;;;;;;48.25;41.00;;;;;14.44;55.39;100901.47;4983610;28;45393;-61
2022/04/25 09:24:24;;;;;;;;;43.25;37.50;;;;;14.40;54.80;100900.84;4983266;28;45392;-61
2022/04/25 09:27:08;;;;;;;;;47.00;35.00;;;;;14.34;54.99;100905.75;4983730;28;45347;-61
2022/04/25 09:29:36;;;;;;;;;41.50;35.00;;;;;14.29;55.18;100908.72;4983120;28;45488;-61
2022/04/25 09:32:03;;;;;;;;;42.00;37.00;;;;;14.28;55.00;100903.53;4983219;28;45401;-61
2022/04/25 09:37:14;;;;;;;;;43.75;36.50;;;;;14.32;54.82;100903.22;4983534;28;45344;-60
2022/04/25 09:39:40;;;;;;;;;34.75;33.00;;;;;14.44;54.83;100901.47;4983275;28;45522;-61
2022/04/25 09:42:06;;;;;;;;;40.25;36.00;;;;;14.56;54.67;100902.41;4982931;28;46289;-61
2022/04/25 09:44:58;;;;;;;;;47.25;36.25;;;;;14.61;54.20;100903.75;4983096;28;45265;-61
2022/04/25 09:47:36;;;;;;;;;47.00;36.25;;;;;14.76;54.62;100901.78;4983278;28;45468;-61
2022/04/25 09:50:04;;;;;;;;;46.25;37.50;;;;;14.93;54.13;100905.81;4981664;28;45401;-60
2022/04/25 09:52:32;;;;;;;;;44.25;35.75;;;;;15.06;53.98;100904.81;4982686;28;45361;-61
2022/04/25 09:55:14;;;;;;;;;47.00;36.25;;;;;15.20;54.04;100908.22;4982922;28;45280;-61
2022/04/25 09:57:41;;;;;;;;;45.50;36.50;;;;;15.33;53.58;100903.69;4983159;28;45372;-61
2022/04/25 10:00:09;;;;;;;;;38.00;34.50;;;;;15.41;53.34;100911.91;4983126;28;45275;-61
2022/04/25 10:02:39;;;;;;;;;31.75;30.00;;;;;15.39;52.70;100920.94;4982733;28;46421;-60
2022/04/25 10:05:15;;;;;;;;;40.00;32.75;;;;;15.43;52.19;100909.13;4981423;28;45429;-61
2022/04/25 10:07:42;;;;;;;;;40.00;35.00;;;;;15.48;52.56;100904.28;4983115;28;45230;-60
2022/04/25 10:10:11;;;;;;;;;44.00;36.00;;;;;15.59;52.12;100906.97;4982559;28;45139;-60
2022/04/25 10:12:38;;;;;;;;;41.25;32.75;;;;;15.65;51.82;100911.00;4991405;28;46144;-61
2022/04/25 10:15:08;;;;;;;;;37.50;32.75;;;;;15.72;52.05;100917.50;4983745;28;45313;-61
2022/04/25 10:17:40;;;;;;;;;34.00;30.25;;;;;15.80;51.40;100910.66;4983077;28;45285;-61
2022/04/25 10:20:07;;;;;;;;;33.25;31.00;;;;;15.87;51.30;100906.53;4982398;28;45478;-61
2022/04/25 10:22:34;;;;;;;;;34.75;29.25;;;;;15.92;51.48;100900.88;4982475;28;46152;-60
2022/04/25 10:25:00;;;;;;;;;34.25;31.00;;;;;16.01;50.50;100909.91;4982498;28;45233;-61
2022/04/25 10:27:32;;;;;;;;;30.50;27.00;;;;;16.06;50.35;100899.78;4982688;28;45234;-61
2022/04/25 10:30:06;;;;;;;;;32.25;30.75;;;;;16.09;49.30;100903.03;4982537;28;45456;-59
2022/04/25 10:32:32;;;;;;;;;34.00;30.50;;;;;16.07;49.37;100910.28;4982154;28;46089;-63
2022/04/25 10:34:59;;;;;;;;;28.25;25.00;;;;;16.10;49.49;100907.38;4982329;28;45302;-61
2022/04/25 10:37:29;;;;;;;;;31.25;27.00;;;;;16.18;49.34;100907.59;4982519;28;45271;-61
2022/04/25 10:39:55;;;;;;;;;31.25;25.50;;;;;16.23;49.19;100896.63;4982280;28;45441;-60
2022/04/25 10:45:06;;;;;;;;;24.50;23.00;;;;;16.50;49.58;100906.81;4982355;28;45388;-61
2022/04/25 10:47:32;;;;;;;;;21.25;19.75;;;;;16.59;47.63;100915.84;4982330;28;45174;-61
2022/04/25 10:49:57;;;;;;;;;23.75;20.00;;;;;16.62;46.73;100907.66;4982027;28;45277;-61
2022/04/25 10:52:38;;;;;;;;;32.25;27.25;;;;;16.62;46.97;100908.50;4981384;28;46020;-61
2022/04/25 10:55:09;;;;;;;;;30.25;23.25;;;;;16.70;47.19;100907.88;4981515;28;45336;-61
2022/04/25 10:57:35;;;;;;;;;21.25;19.75;;;;;16.78;46.26;100899.28;4982138;28;45391;-61
2022/04/25 11:00:00;;;;;;;;;27.00;23.75;;;;;16.79;46.19;100904.47;4982213;28;45295;-61
2022/04/25 11:02:28;;;;;;;;;24.50;22.50;;;;;16.83;46.33;100905.06;4981388;28;45415;-61
2022/04/25 11:05:11;;;;;;;;;23.50;19.75;;;;;16.94;45.66;100902.34;4981504;28;45400;-61
2022/04/25 11:07:38;;;;;;;;;24.25;21.00;;;;;17.03;45.99;100904.25;4981912;28;45433;-61
2022/04/25 11:10:05;;;;;;;;;21.50;19.75;;;;;17.10;45.17;100896.59;4981749;28;45497;-61
2022/04/25 11:12:56;;;;;;;;;18.50;17.00;;;;;17.17;45.45;100903.09;4982221;28;47084;-61
2022/04/25 11:15:40;;;;;;;;;27.25;24.00;;;;;17.28;44.98;100900.34;4969027;28;45448;-61
2022/04/25 11:18:33;;;;;;;;;22.25;20.50;;;;;17.41;44.90;100890.34;4981691;28;45360;-60
2022/04/25 11:21:05;;;;;;;;;25.75;23.25;;;;;17.46;45.14;100897.97;4974346;28;45479;-61
2022/04/25 11:23:50;;;;;;;;;24.25;18.00;;;;;17.52;44.37;100913.41;4981605;28;46192;-61
2022/04/25 11:26:25;;;;;;;;;17.00;16.25;;;;;17.55;44.04;100907.81;4981188;28;45262;-61
2022/04/25 11:29:03;;;;;;;;;18.50;18.50;;;;;17.65;44.14;100905.22;4981718;28;45270;-62
2022/04/25 11:31:30;;;;;;;;;21.25;18.75;;;;;17.77;43.90;100897.03;4981500;28;45498;-61
2022/04/25 11:34:01;;;;;;;;;23.50;20.25;;;;;17.92;44.09;100901.97;4981293;28;46279;-61
2022/04/25 11:36:27;;;;;;;;;19.25;18.00;;;;;18.05;43.58;100890.13;4981429;28;45337;-61
2022/04/25 11:41:39;;;;;;;;;13.75;11.75;;;;;18.24;41.83;100896.47;4981547;28;45310;-61
2022/04/25 11:44:05;;;;;;;;;14.25;12.25;;;;;18.28;41.58;100908.56;4981265;28;46314;-61